createdAt,value
2018-09-21T00:02:15.439Z,48.90
2018-09-21T00:04:42.891Z,48.90
2018-09-21T00:07:10.327Z,49.00
2018-09-21T00:09:37.718Z,49.10
2018-09-21T00:12:05.472Z,49.20
2018-09-21T00:14:32.846Z,49.20
2018-09-21T00:17:00.291Z,49.20
2018-09-21T00:19:27.670Z,49.20
2018-09-21T00:21:55.046Z,49.30
2018-09-21T00:24:22.425Z,49.20
2018-09-21T00:26:49.910Z,49.30
2018-09-21T00:29:17.351Z,49.20
2018-09-21T00:31:44.774Z,49.20
2018-09-21T00:34:12.170Z,49.30
2018-09-21T00:36:39.593Z,49.30
2018-09-21T00:39:08.362Z,49.30
2018-09-21T00:41:35.745Z,49.40
2018-09-21T00:44:03.566Z,49.40
2018-09-21T00:46:30.966Z,49.50
2018-09-21T00:48:58.400Z,49.90
2018-09-21T00:51:25.810Z,49.60
2018-09-21T00:53:53.213Z,49.60
2018-09-21T00:56:20.606Z,49.60
2018-09-21T00:58:48.034Z,49.70
2018-09-21T01:01:15.425Z,49.70
2018-09-21T01:03:42.833Z,49.70
2018-09-21T01:06:10.222Z,49.80
2018-09-21T01:08:37.637Z,49.80
2018-09-21T01:11:05.062Z,50.50
2018-09-21T01:13:32.456Z,49.90
2018-09-21T01:15:59.858Z,50.00
2018-09-21T01:18:27.274Z,50.00
2018-09-21T01:20:54.686Z,50.10
2018-09-21T01:23:22.128Z,50.10
2018-09-21T01:25:49.572Z,50.20
2018-09-21T01:28:16.967Z,50.20
2018-09-21T01:30:44.366Z,50.30
2018-09-21T01:33:11.735Z,50.30
2018-09-21T01:35:39.222Z,50.40
2018-09-21T01:38:06.630Z,50.50
2018-09-21T01:40:34.063Z,51.10
2018-09-21T01:43:01.487Z,51.60
2018-09-21T01:45:28.883Z,50.60
2018-09-21T01:47:56.302Z,50.60
2018-09-21T01:50:23.736Z,51.40
2018-09-21T01:52:51.137Z,50.70
2018-09-21T01:55:18.561Z,50.80
2018-09-21T01:57:45.995Z,50.80
2018-09-21T02:00:13.427Z,50.80
2018-09-21T02:02:40.817Z,50.80
2018-09-21T02:05:08.276Z,50.90
2018-09-21T02:07:35.750Z,51.00
2018-09-21T02:10:03.233Z,51.00
2018-09-21T02:12:30.647Z,51.00
2018-09-21T02:14:58.053Z,51.10
2018-09-21T02:17:25.473Z,51.10
2018-09-21T02:19:52.930Z,51.20
2018-09-21T02:22:20.337Z,51.20
2018-09-21T02:24:47.738Z,51.20
2018-09-21T02:27:15.115Z,51.20
2018-09-21T02:29:42.482Z,51.30
2018-09-21T02:32:09.916Z,51.30
2018-09-21T02:34:37.318Z,51.40
2018-09-21T02:37:04.749Z,52.30
2018-09-21T02:39:32.159Z,51.40
2018-09-21T02:41:59.571Z,51.50
2018-09-21T02:44:26.975Z,51.50
2018-09-21T02:46:54.413Z,51.60
2018-09-21T02:49:21.823Z,51.60
2018-09-21T02:51:49.240Z,52.80
2018-09-21T02:54:16.663Z,51.50
2018-09-21T02:56:44.142Z,51.60
2018-09-21T02:59:11.510Z,51.60
2018-09-21T03:01:38.937Z,51.60
2018-09-21T03:04:06.342Z,51.70
2018-09-21T03:06:33.739Z,51.70
2018-09-21T03:09:01.184Z,51.70
2018-09-21T03:11:28.633Z,51.70
2018-09-21T03:13:56.016Z,51.70
2018-09-21T03:16:23.441Z,51.70
2018-09-21T03:18:50.842Z,51.80
2018-09-21T03:21:18.261Z,51.80
2018-09-21T03:23:45.674Z,51.90
2018-09-21T03:26:13.064Z,51.90
2018-09-21T03:28:40.465Z,52.00
2018-09-21T03:31:07.906Z,52.00
2018-09-21T03:33:35.325Z,52.00
2018-09-21T03:36:02.720Z,52.00
2018-09-21T03:38:30.110Z,52.00
2018-09-21T03:40:57.560Z,52.10
2018-09-21T03:43:24.968Z,52.10
2018-09-21T03:45:52.382Z,52.10
2018-09-21T03:48:19.764Z,52.10
2018-09-21T03:50:47.172Z,52.10
2018-09-21T03:53:14.600Z,52.10
2018-09-21T03:55:42.042Z,52.10
2018-09-21T03:58:09.466Z,52.20
2018-09-21T04:00:36.856Z,52.20
2018-09-21T04:03:04.438Z,52.10
2018-09-21T04:05:31.822Z,52.20
2018-09-21T04:07:59.466Z,52.20
2018-09-21T04:10:26.856Z,52.20
2018-09-21T04:12:54.237Z,52.20
2018-09-21T04:15:21.695Z,52.20
2018-09-21T04:17:49.131Z,52.20
2018-09-21T04:20:16.551Z,52.30
2018-09-21T04:22:49.864Z,52.30
2018-09-21T04:25:17.309Z,52.30
2018-09-21T04:27:44.765Z,52.30
2018-09-21T04:30:12.177Z,52.20
2018-09-21T04:32:39.577Z,52.20
2018-09-21T04:35:07.077Z,52.20
2018-09-21T04:37:34.484Z,52.10
2018-09-21T04:40:01.871Z,52.00
2018-09-21T04:42:29.271Z,52.00
2018-09-21T04:44:56.680Z,51.90
2018-09-21T04:47:24.076Z,51.90
2018-09-21T04:49:51.476Z,51.80
2018-09-21T04:52:18.859Z,51.80
2018-09-21T04:54:46.308Z,51.70
2018-09-21T04:57:13.716Z,51.70
2018-09-21T04:59:41.145Z,51.60
2018-09-21T05:02:08.560Z,51.60
2018-09-21T05:04:37.317Z,51.70
2018-09-21T05:07:04.753Z,51.60
2018-09-21T05:09:32.144Z,51.60
2018-09-21T05:11:59.554Z,51.50
2018-09-21T05:14:26.995Z,51.50
2018-09-21T05:16:54.448Z,51.50
2018-09-21T05:19:21.863Z,51.40
2018-09-21T05:21:49.408Z,51.40
2018-09-21T05:24:16.799Z,51.30
2018-09-21T05:26:44.180Z,51.30
2018-09-21T05:29:11.577Z,51.20
2018-09-21T05:31:39.007Z,51.10
2018-09-21T05:34:06.551Z,51.10
2018-09-21T05:36:33.955Z,51.80
2018-09-21T05:39:01.331Z,51.10
2018-09-21T05:41:28.747Z,51.10
2018-09-21T05:43:56.141Z,51.10
2018-09-21T05:46:23.588Z,51.10
2018-09-21T05:48:50.971Z,51.10
2018-09-21T05:51:18.438Z,51.10
2018-09-21T05:53:45.860Z,51.80
2018-09-21T05:56:13.353Z,51.10
2018-09-21T05:58:40.714Z,51.00
2018-09-21T06:01:08.867Z,51.00
2018-09-21T06:03:36.322Z,51.00
2018-09-21T06:06:03.737Z,50.80
2018-09-21T06:08:31.206Z,51.00
2018-09-21T06:10:58.600Z,50.90
2018-09-21T06:13:26.038Z,50.90
2018-09-21T06:15:53.451Z,50.90
2018-09-21T06:18:20.896Z,51.50
2018-09-21T06:20:48.290Z,50.80
2018-09-21T06:23:15.724Z,50.70
2018-09-21T06:25:43.146Z,50.60
2018-09-21T06:28:10.614Z,51.20
2018-09-21T06:30:37.999Z,50.50
2018-09-21T06:33:05.496Z,50.50
2018-09-21T06:35:32.926Z,50.40
2018-09-21T06:38:00.358Z,50.30
2018-09-21T06:40:27.780Z,50.20
2018-09-21T06:42:55.202Z,50.20
2018-09-21T06:45:22.930Z,50.10
2018-09-21T06:47:50.336Z,50.10
2018-09-21T06:50:17.794Z,50.10
2018-09-21T06:52:45.182Z,50.60
2018-09-21T06:55:12.626Z,49.90
2018-09-21T06:57:40.113Z,49.60
2018-09-21T07:00:07.570Z,49.50
2018-09-21T07:02:34.984Z,49.50
2018-09-21T07:05:08.196Z,49.40
2018-09-21T07:07:35.670Z,49.20
2018-09-21T07:10:03.196Z,49.10
2018-09-21T07:12:30.613Z,49.20
2018-09-21T07:14:58.059Z,49.00
2018-09-21T07:17:25.484Z,48.90
2018-09-21T07:19:53.203Z,48.90
2018-09-21T07:22:20.606Z,48.80
2018-09-21T07:24:48.051Z,48.70
2018-09-21T07:27:15.466Z,48.60
2018-09-21T07:29:42.897Z,49.40
2018-09-21T07:32:10.322Z,48.40
2018-09-21T07:34:37.712Z,48.40
2018-09-21T07:37:05.148Z,48.30
2018-09-21T07:39:32.541Z,48.10
2018-09-21T07:41:59.994Z,48.00
2018-09-21T07:44:27.420Z,48.00
2018-09-21T07:46:55.138Z,47.80
2018-09-21T07:49:22.605Z,47.70
2018-09-21T07:51:50.024Z,47.50
2018-09-21T07:54:17.531Z,47.20
2018-09-21T07:56:44.903Z,47.00
2018-09-21T07:59:12.367Z,46.80
2018-09-21T08:01:39.750Z,46.60
2018-09-21T08:04:07.215Z,46.50
2018-09-21T08:06:34.632Z,46.30
2018-09-21T08:09:02.077Z,46.20
2018-09-21T08:11:29.504Z,46.00
2018-09-21T08:13:56.971Z,45.70
2018-09-21T08:16:24.401Z,45.50
2018-09-21T08:18:51.884Z,45.10
2018-09-21T08:21:19.304Z,45.00
2018-09-21T08:23:46.833Z,44.90
2018-09-21T08:26:14.262Z,44.30
2018-09-21T08:28:41.733Z,44.00
2018-09-21T08:31:09.129Z,43.60
2018-09-21T08:33:36.539Z,43.50
2018-09-21T08:36:04.006Z,43.40
2018-09-21T08:38:31.469Z,43.20
2018-09-21T08:40:59.075Z,42.90
2018-09-21T08:43:26.494Z,42.30
2018-09-21T08:45:53.917Z,42.50
2018-09-21T08:48:21.445Z,41.90
2018-09-21T08:50:48.856Z,41.00
2018-09-21T08:53:16.291Z,40.50
2018-09-21T08:55:43.781Z,40.40
2018-09-21T08:58:11.169Z,40.00
2018-09-21T09:00:38.593Z,39.60
2018-09-21T09:03:06.076Z,39.40
2018-09-21T09:05:33.524Z,39.00
2018-09-21T09:08:00.931Z,38.70
2018-09-21T09:10:28.428Z,38.40
2018-09-21T09:12:55.830Z,37.90
2018-09-21T09:15:23.247Z,37.40
2018-09-21T09:17:50.653Z,37.20
2018-09-21T09:20:18.081Z,37.00
2018-09-21T09:22:45.460Z,36.30
2018-09-21T09:25:12.961Z,35.90
2018-09-21T09:27:40.355Z,35.60
2018-09-21T09:30:07.866Z,35.20
2018-09-21T09:32:35.224Z,34.50
2018-09-21T09:35:02.686Z,33.70
2018-09-21T09:37:30.123Z,32.70
2018-09-21T09:39:57.576Z,31.90
2018-09-21T09:42:25.141Z,30.50
2018-09-21T09:44:52.568Z,29.50
2018-09-21T09:47:19.984Z,28.80
2018-09-21T09:49:47.428Z,28.20
2018-09-21T09:52:14.900Z,27.50
2018-09-21T09:54:42.412Z,26.90
2018-09-21T09:57:10.006Z,26.00
2018-09-21T09:59:37.527Z,25.60
2018-09-21T10:02:04.977Z,25.20
2018-09-21T10:04:32.402Z,25.00
2018-09-21T10:06:59.848Z,24.40
2018-09-21T10:09:27.327Z,24.00
2018-09-21T10:11:54.730Z,23.50
2018-09-21T10:14:22.146Z,23.10
2018-09-21T10:16:49.570Z,22.70
2018-09-21T10:19:16.982Z,22.40
2018-09-21T10:21:44.432Z,21.90
2018-09-21T10:24:12.028Z,21.60
2018-09-21T10:26:39.413Z,21.00
2018-09-21T10:29:06.857Z,20.20
2018-09-21T10:31:34.314Z,20.40
2018-09-21T10:34:01.721Z,20.20
2018-09-21T10:36:29.168Z,19.90
2018-09-21T10:38:56.666Z,19.30
2018-09-21T10:41:23.989Z,19.20
2018-09-21T10:43:51.392Z,19.20
2018-09-21T10:46:18.844Z,19.10
2018-09-21T10:48:46.254Z,18.60
2018-09-21T10:51:13.678Z,18.50
2018-09-21T10:53:41.120Z,18.40
2018-09-21T10:56:08.542Z,18.20
2018-09-21T10:58:36.112Z,17.80
2018-09-21T11:01:03.569Z,17.60
2018-09-21T11:03:30.968Z,17.80
2018-09-21T11:05:58.428Z,17.80
2018-09-21T11:08:25.883Z,17.80
2018-09-21T11:10:53.293Z,17.80
2018-09-21T11:13:20.684Z,18.20
2018-09-21T11:15:48.110Z,18.00
2018-09-21T11:18:15.570Z,18.20
2018-09-21T11:20:43.053Z,18.70
2018-09-21T11:23:10.487Z,19.10
2018-09-21T11:25:37.917Z,19.70
2018-09-21T11:28:05.477Z,20.40
2018-09-21T11:30:33.701Z,20.20
2018-09-21T11:33:01.243Z,20.20
2018-09-21T11:35:28.635Z,20.20
2018-09-21T11:37:56.079Z,20.10
2018-09-21T11:40:23.523Z,20.40
2018-09-21T11:42:50.922Z,20.30
2018-09-21T11:45:18.333Z,20.30
2018-09-21T11:47:45.762Z,20.10
2018-09-21T11:50:13.313Z,20.00
2018-09-21T11:52:40.725Z,19.80
2018-09-21T11:55:08.123Z,19.40
2018-09-21T11:57:35.539Z,19.10
2018-09-21T12:00:03.058Z,18.90
2018-09-21T12:02:30.502Z,18.60
2018-09-21T12:04:58.025Z,18.30
2018-09-21T12:07:25.418Z,18.20
2018-09-21T12:09:52.969Z,17.90
2018-09-21T12:12:20.378Z,17.70
2018-09-21T12:14:47.819Z,17.50
2018-09-21T12:17:15.203Z,17.40
2018-09-21T12:19:42.631Z,17.20
2018-09-21T12:22:10.069Z,16.70
2018-09-21T12:24:37.489Z,16.50
2018-09-21T12:27:04.926Z,16.30
2018-09-21T12:29:32.402Z,16.40
2018-09-21T12:31:59.808Z,16.10
2018-09-21T12:34:27.241Z,16.10
2018-09-21T12:36:54.664Z,16.10
2018-09-21T12:39:22.137Z,16.20
2018-09-21T12:41:49.538Z,16.20
2018-09-21T12:44:17.559Z,15.90
2018-09-21T12:46:44.973Z,15.60
2018-09-21T12:49:12.415Z,15.20
2018-09-21T12:51:39.856Z,15.10
2018-09-21T12:54:07.273Z,15.00
2018-09-21T12:56:34.722Z,15.10
2018-09-21T12:59:02.119Z,15.30
2018-09-21T13:01:29.525Z,15.60
2018-09-21T13:03:56.975Z,15.60
2018-09-21T13:06:24.414Z,15.80
2018-09-21T13:08:51.841Z,15.90
2018-09-21T13:11:19.301Z,15.90
2018-09-21T13:13:46.726Z,15.60
2018-09-21T13:16:14.143Z,15.50
2018-09-21T13:18:41.537Z,15.40
2018-09-21T13:21:08.975Z,15.00
2018-09-21T13:23:36.408Z,14.80
2018-09-21T13:26:03.857Z,14.60
2018-09-21T13:28:31.296Z,14.20
2018-09-21T13:30:58.806Z,14.20
2018-09-21T13:33:26.238Z,13.90
2018-09-21T13:35:53.713Z,13.50
2018-09-21T13:38:21.154Z,13.30
2018-09-21T13:40:48.599Z,13.20
2018-09-21T13:43:16.037Z,13.10
2018-09-21T13:45:43.549Z,13.00
2018-09-21T13:48:10.994Z,13.00
2018-09-21T13:50:38.637Z,13.20
2018-09-21T13:53:06.103Z,13.60
2018-09-21T13:55:33.542Z,13.90
2018-09-21T13:58:00.979Z,14.20
2018-09-21T14:00:28.525Z,13.20
2018-09-21T14:02:55.943Z,14.50
2018-09-21T14:05:23.477Z,14.80
2018-09-21T14:07:50.860Z,15.20
2018-09-21T14:10:18.315Z,15.60
2018-09-21T14:12:45.777Z,15.90
2018-09-21T14:15:13.205Z,16.40
2018-09-21T14:17:40.691Z,16.80
2018-09-21T14:20:08.157Z,17.20
2018-09-21T14:22:35.617Z,17.50
2018-09-21T14:25:03.092Z,17.70
2018-09-21T14:27:30.545Z,18.10
2018-09-21T14:29:57.997Z,18.50
2018-09-21T14:32:25.465Z,18.70
2018-09-21T14:34:52.932Z,19.00
2018-09-21T14:37:20.366Z,19.30
2018-09-21T14:39:47.834Z,19.80
2018-09-21T14:42:15.281Z,20.00
2018-09-21T14:44:42.716Z,20.40
2018-09-21T14:47:10.106Z,20.70
2018-09-21T14:49:37.526Z,21.20
2018-09-21T14:52:04.955Z,21.20
2018-09-21T14:54:32.387Z,21.50
2018-09-21T14:56:59.816Z,21.80
2018-09-21T14:59:27.239Z,22.00
2018-09-21T15:01:54.658Z,22.20
2018-09-21T15:04:22.095Z,22.30
2018-09-21T15:06:49.564Z,22.50
2018-09-21T15:09:16.995Z,22.70
2018-09-21T15:11:44.471Z,22.90
2018-09-21T15:14:11.969Z,23.20
2018-09-21T15:16:39.438Z,23.60
2018-09-21T15:19:06.858Z,23.70
2018-09-21T15:21:34.332Z,23.90
2018-09-21T15:24:01.849Z,24.10
2018-09-21T15:26:29.261Z,24.20
2018-09-21T15:28:56.685Z,24.30
2018-09-21T15:31:24.159Z,24.50
2018-09-21T15:33:52.145Z,24.70
2018-09-21T15:36:20.172Z,24.80
2018-09-21T15:38:47.580Z,24.90
2018-09-21T15:41:14.985Z,25.10
2018-09-21T15:43:42.435Z,25.30
2018-09-21T15:46:09.879Z,25.40
2018-09-21T15:48:37.259Z,25.60
2018-09-21T15:51:04.706Z,25.80
2018-09-21T15:53:32.137Z,26.00
2018-09-21T15:55:59.609Z,26.00
2018-09-21T15:58:27.035Z,26.20
2018-09-21T16:00:54.480Z,26.30
2018-09-21T16:03:21.880Z,26.50
2018-09-21T16:05:49.385Z,26.70
2018-09-21T16:08:16.955Z,26.90
2018-09-21T16:10:44.398Z,27.40
2018-09-21T16:13:11.820Z,27.10
2018-09-21T16:15:39.214Z,27.10
2018-09-21T16:18:06.648Z,27.30
2018-09-21T16:20:34.142Z,27.40
2018-09-21T16:23:01.584Z,27.70
2018-09-21T16:25:28.994Z,27.70
2018-09-21T16:27:56.443Z,27.80
2018-09-21T16:30:23.908Z,27.90
2018-09-21T16:32:51.628Z,28.00
2018-09-21T16:35:19.083Z,28.20
2018-09-21T16:37:46.565Z,28.40
2018-09-21T16:40:14.016Z,28.50
2018-09-21T16:42:41.467Z,28.70
2018-09-21T16:45:08.926Z,28.90
2018-09-21T16:47:36.331Z,29.10
2018-09-21T16:50:03.848Z,29.10
2018-09-21T16:52:31.363Z,29.60
2018-09-21T16:54:58.776Z,29.50
2018-09-21T16:57:26.198Z,29.80
2018-09-21T16:59:53.593Z,29.80
2018-09-21T17:02:20.999Z,29.90
2018-09-21T17:04:48.466Z,30.00
2018-09-21T17:07:16.285Z,30.00
2018-09-21T17:09:45.007Z,31.20
2018-09-21T17:12:12.383Z,30.30
2018-09-21T17:14:39.842Z,30.60
2018-09-21T17:17:07.273Z,30.60
2018-09-21T17:19:34.720Z,30.70
2018-09-21T17:22:02.201Z,30.90
2018-09-21T17:24:29.627Z,31.30
2018-09-21T17:26:57.052Z,31.50
2018-09-21T17:29:24.464Z,31.90
2018-09-21T17:31:51.897Z,32.50
2018-09-21T17:34:19.339Z,33.00
2018-09-21T17:36:46.793Z,33.40
2018-09-21T17:39:14.226Z,33.30
2018-09-21T17:41:41.678Z,33.20
2018-09-21T17:44:09.443Z,33.20
2018-09-21T17:46:36.869Z,33.20
2018-09-21T17:49:04.324Z,33.20
2018-09-21T17:51:31.771Z,33.10
2018-09-21T17:53:59.263Z,33.40
2018-09-21T17:56:26.837Z,33.40
2018-09-21T17:58:54.282Z,33.60
2018-09-21T18:01:21.819Z,34.00
2018-09-21T18:03:49.251Z,34.10
2018-09-21T18:06:16.663Z,34.20
2018-09-21T18:08:44.086Z,34.40
2018-09-21T18:11:12.158Z,34.70
2018-09-21T18:13:39.636Z,34.20
2018-09-21T18:16:07.761Z,35.30
2018-09-21T18:18:36.105Z,35.60
2018-09-21T18:21:03.548Z,35.60
2018-09-21T18:23:30.968Z,35.90
2018-09-21T18:25:59.208Z,35.80
2018-09-21T18:28:26.692Z,35.90
2018-09-21T18:30:54.688Z,35.90
2018-09-21T18:33:22.997Z,36.00
2018-09-21T18:35:50.476Z,36.20
2018-09-21T18:38:19.072Z,36.50
2018-09-21T18:40:46.557Z,36.50
2018-09-21T18:43:13.996Z,36.70
2018-09-21T18:45:41.449Z,36.60
2018-09-21T18:48:08.883Z,36.60
2018-09-21T18:50:36.394Z,36.50
2018-09-21T18:53:03.890Z,36.70
2018-09-21T18:55:31.650Z,37.10
2018-09-21T18:57:59.122Z,37.50
2018-09-21T19:00:26.590Z,38.20
2018-09-21T19:02:54.055Z,38.40
2018-09-21T19:05:21.500Z,38.20
2018-09-21T19:07:49.553Z,38.40
2018-09-21T19:10:17.677Z,38.50
2018-09-21T19:12:45.214Z,39.20
2018-09-21T19:15:12.765Z,39.40
2018-09-21T19:17:40.367Z,39.70
2018-09-21T19:20:08.600Z,39.60
2018-09-21T19:22:36.106Z,40.20
2018-09-21T19:25:03.612Z,39.70
2018-09-21T19:27:31.113Z,40.00
2018-09-21T19:29:58.548Z,39.90
2018-09-21T19:32:25.994Z,39.80
2018-09-21T19:34:53.403Z,42.50
2018-09-21T19:37:20.828Z,40.60
2018-09-21T19:39:48.256Z,40.80
2018-09-21T19:42:15.691Z,41.30
2018-09-21T19:44:43.120Z,41.20
2018-09-21T19:47:10.592Z,41.40
2018-09-21T19:49:38.132Z,41.30
2018-09-21T19:52:05.591Z,41.60
2018-09-21T19:54:33.081Z,42.20
2018-09-21T19:57:00.507Z,42.50
2018-09-21T19:59:27.926Z,42.80
2018-09-21T20:01:55.371Z,43.10
2018-09-21T20:04:22.822Z,42.90
2018-09-21T20:06:50.331Z,43.20
2018-09-21T20:09:17.850Z,43.50
2018-09-21T20:11:45.282Z,43.40
2018-09-21T20:14:12.703Z,43.50
2018-09-21T20:16:40.160Z,43.70
2018-09-21T20:19:07.603Z,43.80
2018-09-21T20:21:34.997Z,43.70
2018-09-21T20:24:02.420Z,43.90
2018-09-21T20:26:29.831Z,43.90
2018-09-21T20:28:57.333Z,43.80
2018-09-21T20:31:30.388Z,43.90
2018-09-21T20:33:57.846Z,44.20
2018-09-21T20:36:25.269Z,44.30
2018-09-21T20:38:52.684Z,43.90
2018-09-21T20:41:20.131Z,43.90
2018-09-21T20:43:47.536Z,44.40
2018-09-21T20:46:14.997Z,44.30
2018-09-21T20:48:42.436Z,44.60
2018-09-21T20:51:09.882Z,44.70
2018-09-21T20:53:37.738Z,45.50
2018-09-21T20:56:05.160Z,45.60
2018-09-21T20:58:32.530Z,45.80
2018-09-21T21:00:59.966Z,45.80
2018-09-21T21:03:27.468Z,45.90
2018-09-21T21:05:54.905Z,46.20
2018-09-21T21:08:22.376Z,46.30
2018-09-21T21:10:49.824Z,47.00
2018-09-21T21:13:17.253Z,46.90
2018-09-21T21:15:44.670Z,46.80
2018-09-21T21:18:12.066Z,47.00
2018-09-21T21:20:39.473Z,46.70
2018-09-21T21:23:06.954Z,47.20
2018-09-21T21:25:34.544Z,47.00
2018-09-21T21:28:01.970Z,47.10
2018-09-21T21:30:29.430Z,47.30
2018-09-21T21:32:56.890Z,47.30
2018-09-21T21:35:24.322Z,47.60
2018-09-21T21:37:51.828Z,47.70
2018-09-21T21:40:19.279Z,47.90
2018-09-21T21:42:46.685Z,48.20
2018-09-21T21:45:14.090Z,47.90
2018-09-21T21:47:41.568Z,48.00
2018-09-21T21:50:08.996Z,48.00
2018-09-21T21:52:36.440Z,48.30
2018-09-21T21:55:03.946Z,48.30
2018-09-21T21:57:31.411Z,48.40
2018-09-21T21:59:58.882Z,48.40
2018-09-21T22:02:26.407Z,48.60
2018-09-21T22:04:53.812Z,48.50
2018-09-21T22:07:21.247Z,48.40
2018-09-21T22:09:48.735Z,48.70
2018-09-21T22:12:21.832Z,48.30
2018-09-21T22:14:49.287Z,48.50
2018-09-21T22:17:16.676Z,47.90
2018-09-21T22:19:44.137Z,48.10
2018-09-21T22:22:11.550Z,48.40
2018-09-21T22:24:39.014Z,48.30
2018-09-21T22:27:06.487Z,48.50
2018-09-21T22:29:33.941Z,48.70
2018-09-21T22:32:01.394Z,48.80
2018-09-21T22:34:28.850Z,48.80
2018-09-21T22:36:56.277Z,48.60
2018-09-21T22:39:23.757Z,48.50
2018-09-21T22:41:51.160Z,48.70
2018-09-21T22:44:18.627Z,48.50
2018-09-21T22:46:46.093Z,49.10
2018-09-21T22:49:16.567Z,49.10
2018-09-21T22:51:43.963Z,49.10
2018-09-21T22:54:11.417Z,49.30
2018-09-21T22:56:39.707Z,49.70
2018-09-21T22:59:07.109Z,49.90
2018-09-21T23:01:34.525Z,47.70
2018-09-21T23:04:01.907Z,49.70
2018-09-21T23:06:29.311Z,49.40
2018-09-21T23:08:56.702Z,49.60
2018-09-21T23:11:24.231Z,49.40
2018-09-21T23:13:51.665Z,49.50
2018-09-21T23:16:19.164Z,49.80
2018-09-21T23:18:46.674Z,49.80
2018-09-21T23:21:14.085Z,49.60
2018-09-21T23:23:41.472Z,49.70
2018-09-21T23:26:08.912Z,49.90
2018-09-21T23:28:36.368Z,50.10
2018-09-21T23:31:03.774Z,50.10
2018-09-21T23:33:31.173Z,50.10
2018-09-21T23:35:58.583Z,50.20
2018-09-21T23:38:25.970Z,50.10
2018-09-21T23:40:53.355Z,49.90
2018-09-21T23:43:20.757Z,49.30
2018-09-21T23:45:48.170Z,49.60
2018-09-21T23:48:15.549Z,49.60
2018-09-21T23:50:42.990Z,49.70
2018-09-21T23:53:10.392Z,50.00
2018-09-21T23:55:37.824Z,50.10
2018-09-21T23:58:05.259Z,49.40
